Indian Hills, Colorado
Current Conditions -  °F | °C
As of 12:50 PM on Friday 24 Oct 2014 (Local Time) from KBJC Reporting Station
Scattered Clouds Scattered Clouds  
Wind Chill: 77°   Ceiling: Unl
Heat Index: 77°   Visibility: 50mi
Dew Point: 25°   Wind: 10mph
Humidity: 14%   Direction: 120°ESE
Pressure: 30.19"   Gusts: NA
Location:  39.62°N, 105.24°W
Report Text: KBJC 241850Z 12009KT 50SM FEW120 SCT200 25/M04 A3019
Loading
Personal Weather Stations






























Interactive Weather Map
Tropical Storm Tracking
New forecast layout! Learn more

10-Day Weather Forecast

Advertisements
Track Severe Weather on mobile